Flugplatz Burg Feuerstein
 
.... wo jeder bestens aufgehoben ist! 

 

DSC04520

 


Täglich sind wir von 08.30 bis 12.30 Uhr und von 13.00 bis 16.45 Uhr unter 09194 - 79 75 75 

oder 

rund um die Uhr per Diese E-Mail-Adresse ist vor Spambots geschützt! Zur Anzeige muss JavaScript eingeschaltet sein! zu erreichen!

 

Flugbetrieb an jedem fliegbaren Tag von 9 Uhr bis 18 Uhr - nach Absprache auch flexibel darüber hinaus ! 

 


 
 

Wir bieten professionelle und trotzdem sehr günstige Ausbildung in 4 Sparten an:

Motorflug Motorsegler Segelflug Ultraleicht

Bei unseren Gebühren gibt keine „versteckten Kosten“ wie

  • Baustunden oder finanzielle Ausgleiche dafür
  • Verpflichtung zu Diensten oder finanzielle Ausgleiche dafür
  • Umschulungs- oder Typengebühren

Ebenso gibt es bei uns keinerlei zeitlicher Verpflichtungen zur Teilnahme am Flugbetrieb!

Kümmern Sie sich nur um Ihre fliegerischen Ambitionen – den Rest machen wir!

Feuerstein News Ticker

Die ersten Schneeflocken sind schon vorhergesagt und es ist eine Frage der Zeit, bis der Winter vollends da ist und uns eine erste Schneedecke beschert! Sofern es einen Bedarf gibt,...


mehr lesen ...

Eigentlich ist der Lothar von Anfang an ein fliegerischer Spätzünder: Mit 52 Jahren erlernte der Brandenburger das Segelfliegen und gab sich mit dem "normalen Kurbeln" nicht zufrieden! "Ich wollte meine...


mehr lesen ...

Deutliche Einschränkungen mussten wir speziell in den letzten Tagen in Kauf nehmen: aufgrund der sich unter den ausgeprägten Inversionen ansammelnder Partikel kommt es dort zu verbreitetem Dunst, der vor allem...


mehr lesen ...

Ein unglaublich schönes Motiv von Anne Stolle: unsere Katana im Anflug auf die Piste 08 bei einem herrlichen Sonnenuntergang Viele Terassenbesucher unseres Restaurants "Take Off" genießen ebenfalls den einmaligen Blick gen...


mehr lesen ...

Einige unserer Piloten haben sich gegen Ende der "regulären" Flugsaison nochmals mächtig ins Zeug gelegt, um ihre persönlichen Ziele zu erreichen. Vorweg: auch in der kalten Jahreszeit bieten wir Flugbetrieb...


mehr lesen ...
01234

Webcam Blick N

webcam 2

Webcam Blick NO

webcam 1

METAR EDDN

[Quelle: ADDS]
METAR
EDDN 202220Z 08004KT 040V100 CAVOK M00/M02 Q1011 =
EDDN 201700Z 2018/2118 08004KT 9999 FEW012 BKN025 BECMG 2100/2102 BKN008 BECMG 2108/2110 BKN012 BECMG 2110/2113 BKN015
TAF
EDDN 201700Z 2018/2118 08004KT 9999 FEW012 BKN025 BECMG 2100/2102 BKN008 BECMG 2108/2110 BKN012 BECMG 2110/2113 BKN015 =
SR / SS: 06:36 / 15:26 UTC (EDQE 2018-11-20)

Wetter EDQE


Das Wetter heute
Das Wetter morgen